sensor_id;sensor_type;location;lat;lon;timestamp;pressure;altitude;pressure_sealevel;temperature;humidity
6032;BME280;3044;43.232;27.972;2023-02-18T00:01:44;45115.72;;;-143.84;41.40
6032;BME280;3044;43.232;27.972;2023-02-18T00:04:12;45106.19;;;-143.84;41.31
6032;BME280;3044;43.232;27.972;2023-02-18T00:06:40;45144.28;;;-143.84;41.25
6032;BME280;3044;43.232;27.972;2023-02-18T00:09:07;45134.75;;;-143.84;41.59
6032;BME280;3044;43.232;27.972;2023-02-18T00:11:35;45117.63;;;-143.84;41.40
6032;BME280;3044;43.232;27.972;2023-02-18T00:14:03;45127.13;;;-143.84;41.23
6032;BME280;3044;43.232;27.972;2023-02-18T00:16:33;45121.44;;;-143.84;41.20
6032;BME280;3044;43.232;27.972;2023-02-18T00:19:02;45138.56;;;-143.84;41.23
6032;BME280;3044;43.232;27.972;2023-02-18T00:21:31;45104.28;;;-143.84;41.15
6032;BME280;3044;43.232;27.972;2023-02-18T00:23:59;45138.56;;;-143.84;41.31
6032;BME280;3044;43.232;27.972;2023-02-18T00:26:27;45104.28;;;-143.84;40.75
6032;BME280;3044;43.232;27.972;2023-02-18T00:28:54;45129.03;;;-143.84;41.13
6032;BME280;3044;43.232;27.972;2023-02-18T00:31:23;45163.31;;;-143.84;41.04
6032;BME280;3044;43.232;27.972;2023-02-18T00:33:52;45111.91;;;-143.84;41.05
6032;BME280;3044;43.232;27.972;2023-02-18T00:36:21;45117.63;;;-143.84;41.11
6032;BME280;3044;43.232;27.972;2023-02-18T00:38:49;45121.44;;;-143.84;41.08
6032;BME280;3044;43.232;27.972;2023-02-18T00:41:17;45132.84;;;-143.84;41.28
6032;BME280;3044;43.232;27.972;2023-02-18T00:43:44;45115.72;;;-143.84;41.09
6032;BME280;3044;43.232;27.972;2023-02-18T00:46:11;45140.47;;;-143.84;41.21
6032;BME280;3044;43.232;27.972;2023-02-18T00:48:39;45123.34;;;-143.84;41.00
6032;BME280;3044;43.232;27.972;2023-02-18T00:51:08;45129.03;;;-143.84;41.26
6032;BME280;3044;43.232;27.972;2023-02-18T00:53:36;45111.91;;;-143.84;41.31
6032;BME280;3044;43.232;27.972;2023-02-18T00:56:04;45121.44;;;-143.84;41.04
6032;BME280;3044;43.232;27.972;2023-02-18T00:58:31;45117.63;;;-143.84;41.18
6032;BME280;3044;43.232;27.972;2023-02-18T01:00:59;45146.19;;;-143.84;41.16
6032;BME280;3044;43.232;27.972;2023-02-18T01:03:26;45125.22;;;-143.84;41.36
6032;BME280;3044;43.232;27.972;2023-02-18T01:05:53;45121.44;;;-143.84;41.34
6032;BME280;3044;43.232;27.972;2023-02-18T01:08:22;45119.53;;;-143.84;41.36
6032;BME280;3044;43.232;27.972;2023-02-18T01:10:52;45132.84;;;-143.84;41.36
6032;BME280;3044;43.232;27.972;2023-02-18T01:13:20;45130.94;;;-143.84;41.55
6032;BME280;3044;43.232;27.972;2023-02-18T01:15:47;45155.69;;;-143.84;41.58
6032;BME280;3044;43.232;27.972;2023-02-18T01:18:15;45108.09;;;-143.84;41.65
6032;BME280;3044;43.232;27.972;2023-02-18T01:20:43;45146.19;;;-143.84;41.57
6032;BME280;3044;43.232;27.972;2023-02-18T01:23:11;45123.34;;;-143.84;41.63
6032;BME280;3044;43.232;27.972;2023-02-18T01:25:40;45108.09;;;-143.84;41.56
6032;BME280;3044;43.232;27.972;2023-02-18T01:28:08;45129.03;;;-143.84;41.59
6032;BME280;3044;43.232;27.972;2023-02-18T01:30:36;45127.13;;;-143.84;41.45
6032;BME280;3044;43.232;27.972;2023-02-18T01:33:03;45115.72;;;-143.84;41.40
6032;BME280;3044;43.232;27.972;2023-02-18T01:35:31;45115.72;;;-143.84;41.42
6032;BME280;3044;43.232;27.972;2023-02-18T01:37:58;45125.22;;;-143.84;41.42
6032;BME280;3044;43.232;27.972;2023-02-18T01:40:28;45123.34;;;-143.84;41.24
6032;BME280;3044;43.232;27.972;2023-02-18T01:42:56;45115.72;;;-143.84;41.22
6032;BME280;3044;43.232;27.972;2023-02-18T01:45:58;45130.94;;;-143.84;41.12
6032;BME280;3044;43.232;27.972;2023-02-18T01:48:28;45146.19;;;-143.84;41.23
6032;BME280;3044;43.232;27.972;2023-02-18T01:50:59;45132.84;;;-143.84;41.20
6032;BME280;3044;43.232;27.972;2023-02-18T01:53:30;45108.09;;;-143.84;41.11
6032;BME280;3044;43.232;27.972;2023-02-18T01:56:01;45108.09;;;-143.84;41.01
6032;BME280;3044;43.232;27.972;2023-02-18T01:58:32;45138.56;;;-143.84;41.12
6032;BME280;3044;43.232;27.972;2023-02-18T02:01:00;45115.72;;;-143.84;41.11
6032;BME280;3044;43.232;27.972;2023-02-18T02:03:27;45129.03;;;-143.84;41.05
6032;BME280;3044;43.232;27.972;2023-02-18T02:05:54;45104.28;;;-143.84;41.11
6032;BME280;3044;43.232;27.972;2023-02-18T02:08:21;45125.22;;;-143.84;41.14
6032;BME280;3044;43.232;27.972;2023-02-18T02:11:03;45129.03;;;-143.84;41.12
6032;BME280;3044;43.232;27.972;2023-02-18T02:13:44;45130.94;;;-143.84;41.10
6032;BME280;3044;43.232;27.972;2023-02-18T02:16:19;45119.53;;;-143.84;41.05
6032;BME280;3044;43.232;27.972;2023-02-18T02:18:59;45151.91;;;-143.84;41.07
6032;BME280;3044;43.232;27.972;2023-02-18T02:25:03;45136.66;;;-143.84;41.11
6032;BME280;3044;43.232;27.972;2023-02-18T02:27:55;45129.03;;;-143.84;41.18
6032;BME280;3044;43.232;27.972;2023-02-18T02:30:43;45098.56;;;-143.84;40.87
6032;BME280;3044;43.232;27.972;2023-02-18T02:36:30;45115.72;;;-143.84;41.01
6032;BME280;3044;43.232;27.972;2023-02-18T02:39:02;45111.91;;;-143.84;40.88
6032;BME280;3044;43.232;27.972;2023-02-18T02:41:44;45117.63;;;-143.84;40.71
6032;BME280;3044;43.232;27.972;2023-02-18T02:44:20;45163.31;;;-143.84;40.56
6032;BME280;3044;43.232;27.972;2023-02-18T02:46:50;45130.94;;;-143.84;40.56
6032;BME280;3044;43.232;27.972;2023-02-18T02:49:27;45159.50;;;-143.84;40.49
6032;BME280;3044;43.232;27.972;2023-02-18T02:52:03;45104.28;;;-143.84;40.63
6032;BME280;3044;43.232;27.972;2023-02-18T02:54:32;45117.63;;;-143.84;40.70
6032;BME280;3044;43.232;27.972;2023-02-18T02:57:05;45136.66;;;-143.84;40.61
6032;BME280;3044;43.232;27.972;2023-02-18T02:59:35;45121.44;;;-143.84;40.58
6032;BME280;3044;43.232;27.972;2023-02-18T03:02:17;45090.97;;;-143.84;40.71
6032;BME280;3044;43.232;27.972;2023-02-18T03:05:07;45094.78;;;-143.84;40.51
6032;BME280;3044;43.232;27.972;2023-02-18T03:08:06;45155.69;;;-143.84;40.51
6032;BME280;3044;43.232;27.972;2023-02-18T03:10:44;45100.47;;;-143.84;40.58
6032;BME280;3044;43.232;27.972;2023-02-18T03:13:17;45094.78;;;-143.84;40.36
6032;BME280;3044;43.232;27.972;2023-02-18T03:15:51;45102.38;;;-143.84;40.55
6032;BME280;3044;43.232;27.972;2023-02-18T03:18:25;45136.66;;;-143.84;40.27
6032;BME280;3044;43.232;27.972;2023-02-18T03:21:00;45106.19;;;-143.84;40.49
6032;BME280;3044;43.232;27.972;2023-02-18T03:23:35;45130.94;;;-143.84;40.37
6032;BME280;3044;43.232;27.972;2023-02-18T03:26:05;45132.84;;;-143.84;40.51
6032;BME280;3044;43.232;27.972;2023-02-18T03:28:35;45121.44;;;-143.84;40.63
6032;BME280;3044;43.232;27.972;2023-02-18T03:31:06;45117.63;;;-143.84;40.60
6032;BME280;3044;43.232;27.972;2023-02-18T03:33:38;45132.84;;;-143.84;40.61
6032;BME280;3044;43.232;27.972;2023-02-18T03:36:08;45115.72;;;-143.84;40.63
6032;BME280;3044;43.232;27.972;2023-02-18T03:38:41;45123.34;;;-143.84;40.73
6032;BME280;3044;43.232;27.972;2023-02-18T03:41:10;45104.28;;;-143.84;40.62
6032;BME280;3044;43.232;27.972;2023-02-18T03:43:39;45209.03;;;-143.84;40.57
6032;BME280;3044;43.232;27.972;2023-02-18T03:46:06;45127.13;;;-143.84;40.40
6032;BME280;3044;43.232;27.972;2023-02-18T03:48:34;45121.44;;;-143.84;40.71
6032;BME280;3044;43.232;27.972;2023-02-18T03:51:01;45121.44;;;-143.84;40.77
6032;BME280;3044;43.232;27.972;2023-02-18T03:53:28;45123.34;;;-143.84;40.81
6032;BME280;3044;43.232;27.972;2023-02-18T03:55:57;45140.47;;;-143.84;40.72
6032;BME280;3044;43.232;27.972;2023-02-18T03:58:24;45121.44;;;-143.84;40.69
6032;BME280;3044;43.232;27.972;2023-02-18T04:00:51;45155.69;;;-143.84;40.75
6032;BME280;3044;43.232;27.972;2023-02-18T04:03:18;45129.03;;;-143.84;40.72
6032;BME280;3044;43.232;27.972;2023-02-18T04:05:45;45136.66;;;-143.84;40.85
6032;BME280;3044;43.232;27.972;2023-02-18T04:08:12;45129.03;;;-143.84;40.90
6032;BME280;3044;43.232;27.972;2023-02-18T04:10:39;45123.34;;;-143.84;40.93
6032;BME280;3044;43.232;27.972;2023-02-18T04:13:08;45132.84;;;-143.84;41.16
6032;BME280;3044;43.232;27.972;2023-02-18T04:15:35;45113.81;;;-143.84;41.17
6032;BME280;3044;43.232;27.972;2023-02-18T04:18:03;45130.94;;;-143.84;41.14
6032;BME280;3044;43.232;27.972;2023-02-18T04:20:30;45134.75;;;-143.84;41.06
6032;BME280;3044;43.232;27.972;2023-02-18T04:22:57;45129.03;;;-143.84;41.10
6032;BME280;3044;43.232;27.972;2023-02-18T04:25:24;45121.44;;;-143.84;41.21
6032;BME280;3044;43.232;27.972;2023-02-18T04:27:51;45115.72;;;-143.84;40.98
6032;BME280;3044;43.232;27.972;2023-02-18T04:30:20;45106.19;;;-143.84;41.13
6032;BME280;3044;43.232;27.972;2023-02-18T04:32:48;45119.53;;;-143.84;41.14
6032;BME280;3044;43.232;27.972;2023-02-18T04:35:15;45111.91;;;-143.84;41.03
6032;BME280;3044;43.232;27.972;2023-02-18T04:37:42;45144.28;;;-143.84;41.02
6032;BME280;3044;43.232;27.972;2023-02-18T04:40:10;45130.94;;;-143.84;40.89
6032;BME280;3044;43.232;27.972;2023-02-18T04:42:37;45136.66;;;-143.84;40.77
6032;BME280;3044;43.232;27.972;2023-02-18T04:45:05;45136.66;;;-143.84;40.86
6032;BME280;3044;43.232;27.972;2023-02-18T04:47:34;45119.53;;;-143.84;40.96
6032;BME280;3044;43.232;27.972;2023-02-18T04:50:01;45089.06;;;-143.84;41.34
6032;BME280;3044;43.232;27.972;2023-02-18T04:52:28;45130.94;;;-143.84;41.11
6032;BME280;3044;43.232;27.972;2023-02-18T04:54:55;45129.03;;;-143.84;41.23
6032;BME280;3044;43.232;27.972;2023-02-18T04:57:23;45130.94;;;-143.84;41.09
6032;BME280;3044;43.232;27.972;2023-02-18T04:59:50;45151.91;;;-143.84;41.31
6032;BME280;3044;43.232;27.972;2023-02-18T05:02:17;45129.03;;;-143.84;41.49
6032;BME280;3044;43.232;27.972;2023-02-18T05:04:45;45108.09;;;-143.84;41.33
6032;BME280;3044;43.232;27.972;2023-02-18T05:07:12;45106.19;;;-143.84;41.19
6032;BME280;3044;43.232;27.972;2023-02-18T05:09:39;45100.47;;;-143.84;41.24
6032;BME280;3044;43.232;27.972;2023-02-18T05:12:07;45130.94;;;-143.84;41.19
6032;BME280;3044;43.232;27.972;2023-02-18T05:14:34;45130.94;;;-143.84;41.31
6032;BME280;3044;43.232;27.972;2023-02-18T05:17:01;45150.00;;;-143.84;41.16
6032;BME280;3044;43.232;27.972;2023-02-18T05:19:29;45121.44;;;-143.84;41.11
6032;BME280;3044;43.232;27.972;2023-02-18T05:21:57;45125.22;;;-143.84;40.66
6032;BME280;3044;43.232;27.972;2023-02-18T05:24:24;45132.84;;;-143.84;40.55
6032;BME280;3044;43.232;27.972;2023-02-18T05:26:51;45111.91;;;-143.84;40.60
6032;BME280;3044;43.232;27.972;2023-02-18T05:29:18;45111.91;;;-143.84;40.46
6032;BME280;3044;43.232;27.972;2023-02-18T05:31:45;45134.75;;;-143.84;40.39
6032;BME280;3044;43.232;27.972;2023-02-18T05:34:13;45130.94;;;-143.84;40.10
6032;BME280;3044;43.232;27.972;2023-02-18T05:36:40;45079.53;;;-143.84;39.93
6032;BME280;3044;43.232;27.972;2023-02-18T05:39:08;45144.28;;;-143.84;39.98
6032;BME280;3044;43.232;27.972;2023-02-18T05:41:35;45121.44;;;-143.84;39.89
6032;BME280;3044;43.232;27.972;2023-02-18T05:44:02;45106.19;;;-143.84;39.72
6032;BME280;3044;43.232;27.972;2023-02-18T05:46:46;45146.19;;;-143.84;39.66
6032;BME280;3044;43.232;27.972;2023-02-18T05:49:13;45106.19;;;-143.84;39.55
6032;BME280;3044;43.232;27.972;2023-02-18T05:51:40;45136.66;;;-143.84;39.66
6032;BME280;3044;43.232;27.972;2023-02-18T05:54:09;45111.91;;;-143.84;39.58
6032;BME280;3044;43.232;27.972;2023-02-18T05:56:36;45121.44;;;-143.84;39.52
6032;BME280;3044;43.232;27.972;2023-02-18T05:59:03;45119.53;;;-143.84;39.60
6032;BME280;3044;43.232;27.972;2023-02-18T06:01:30;45123.34;;;-143.84;39.46
6032;BME280;3044;43.232;27.972;2023-02-18T06:03:58;45104.28;;;-143.84;39.44
6032;BME280;3044;43.232;27.972;2023-02-18T06:06:25;45102.38;;;-143.84;39.37
6032;BME280;3044;43.232;27.972;2023-02-18T06:08:52;45108.09;;;-143.84;39.35
6032;BME280;3044;43.232;27.972;2023-02-18T06:11:21;45123.34;;;-143.84;39.49
6032;BME280;3044;43.232;27.972;2023-02-18T06:13:48;45129.03;;;-143.84;39.42
6032;BME280;3044;43.232;27.972;2023-02-18T06:16:15;45117.63;;;-143.84;39.35
6032;BME280;3044;43.232;27.972;2023-02-18T06:18:42;45144.28;;;-143.84;39.27
6032;BME280;3044;43.232;27.972;2023-02-18T06:21:09;45127.13;;;-143.84;39.23
6032;BME280;3044;43.232;27.972;2023-02-18T06:23:36;45127.13;;;-143.84;39.32
6032;BME280;3044;43.232;27.972;2023-02-18T06:26:03;45113.81;;;-143.84;39.23
6032;BME280;3044;43.232;27.972;2023-02-18T06:28:32;45134.75;;;-143.84;39.07
6032;BME280;3044;43.232;27.972;2023-02-18T06:30:59;45148.09;;;-143.84;39.09
6032;BME280;3044;43.232;27.972;2023-02-18T06:33:26;45125.22;;;-143.84;39.17
6032;BME280;3044;43.232;27.972;2023-02-18T06:35:55;45111.91;;;-143.84;39.06
6032;BME280;3044;43.232;27.972;2023-02-18T06:38:22;45117.63;;;-143.84;39.25
6032;BME280;3044;43.232;27.972;2023-02-18T06:40:50;45111.91;;;-143.84;39.29
6032;BME280;3044;43.232;27.972;2023-02-18T06:43:17;45121.44;;;-143.84;39.15
6032;BME280;3044;43.232;27.972;2023-02-18T06:45:45;45144.28;;;-143.84;38.86
6032;BME280;3044;43.232;27.972;2023-02-18T06:48:13;45106.19;;;-143.84;38.81
6032;BME280;3044;43.232;27.972;2023-02-18T06:50:41;45140.47;;;-143.84;38.68
6032;BME280;3044;43.232;27.972;2023-02-18T06:53:09;45096.66;;;-143.84;38.67
6032;BME280;3044;43.232;27.972;2023-02-18T06:55:36;45117.63;;;-143.84;38.75
6032;BME280;3044;43.232;27.972;2023-02-18T06:58:03;45100.47;;;-143.84;38.79
6032;BME280;3044;43.232;27.972;2023-02-18T07:00:31;45106.19;;;-143.84;38.28
6032;BME280;3044;43.232;27.972;2023-02-18T07:02:59;45100.47;;;-143.84;38.57
6032;BME280;3044;43.232;27.972;2023-02-18T07:05:26;45106.19;;;-143.84;38.21
6032;BME280;3044;43.232;27.972;2023-02-18T07:07:54;45117.63;;;-143.84;38.38
6032;BME280;3044;43.232;27.972;2023-02-18T07:10:21;45100.47;;;-143.84;38.13
6032;BME280;3044;43.232;27.972;2023-02-18T07:12:48;45117.63;;;-143.84;38.00
6032;BME280;3044;43.232;27.972;2023-02-18T07:15:15;45129.03;;;-143.84;38.15
6032;BME280;3044;43.232;27.972;2023-02-18T07:17:42;45129.03;;;-143.84;37.68
6032;BME280;3044;43.232;27.972;2023-02-18T07:20:11;45129.03;;;-143.84;37.47
6032;BME280;3044;43.232;27.972;2023-02-18T07:22:38;45117.63;;;-143.84;37.54
6032;BME280;3044;43.232;27.972;2023-02-18T07:25:06;45102.38;;;-143.84;37.46
6032;BME280;3044;43.232;27.972;2023-02-18T07:27:33;45110.00;;;-143.84;37.29
6032;BME280;3044;43.232;27.972;2023-02-18T07:30:00;45119.53;;;-143.84;37.27
6032;BME280;3044;43.232;27.972;2023-02-18T07:32:27;45111.91;;;-143.84;37.28
6032;BME280;3044;43.232;27.972;2023-02-18T07:34:55;45104.28;;;-143.84;36.90
6032;BME280;3044;43.232;27.972;2023-02-18T07:37:23;45100.47;;;-143.84;37.04
6032;BME280;3044;43.232;27.972;2023-02-18T07:39:50;45104.28;;;-143.84;37.20
6032;BME280;3044;43.232;27.972;2023-02-18T07:42:17;45111.91;;;-143.84;36.77
6032;BME280;3044;43.232;27.972;2023-02-18T07:44:45;45094.78;;;-143.84;36.92
6032;BME280;3044;43.232;27.972;2023-02-18T07:47:13;45100.47;;;-143.84;36.98
6032;BME280;3044;43.232;27.972;2023-02-18T07:49:43;45111.91;;;-143.84;37.20
6032;BME280;3044;43.232;27.972;2023-02-18T07:52:10;45094.78;;;-143.84;37.22
6032;BME280;3044;43.232;27.972;2023-02-18T07:54:39;45111.91;;;-143.84;37.37
6032;BME280;3044;43.232;27.972;2023-02-18T07:57:06;45104.28;;;-143.84;36.89
6032;BME280;3044;43.232;27.972;2023-02-18T07:59:33;45119.53;;;-143.84;37.07
6032;BME280;3044;43.232;27.972;2023-02-18T08:02:00;45089.06;;;-143.84;37.10
6032;BME280;3044;43.232;27.972;2023-02-18T08:04:27;45108.09;;;-143.84;36.87
6032;BME280;3044;43.232;27.972;2023-02-18T08:06:55;45085.25;;;-143.84;36.62
6032;BME280;3044;43.232;27.972;2023-02-18T08:09:22;45106.19;;;-143.84;36.85
6032;BME280;3044;43.232;27.972;2023-02-18T08:11:50;45134.75;;;-143.84;36.36
6032;BME280;3044;43.232;27.972;2023-02-18T08:14:17;45083.34;;;-143.84;36.84
6032;BME280;3044;43.232;27.972;2023-02-18T08:16:44;45094.78;;;-143.84;36.25
6032;BME280;3044;43.232;27.972;2023-02-18T08:19:11;45098.56;;;-143.84;36.41
6032;BME280;3044;43.232;27.972;2023-02-18T08:21:39;45138.56;;;-143.84;35.65
6032;BME280;3044;43.232;27.972;2023-02-18T08:24:06;45108.09;;;-143.84;35.66
6032;BME280;3044;43.232;27.972;2023-02-18T08:26:33;45129.03;;;-143.84;35.71
6032;BME280;3044;43.232;27.972;2023-02-18T08:29:02;45090.97;;;-143.84;35.45
6032;BME280;3044;43.232;27.972;2023-02-18T08:31:30;45104.28;;;-143.84;35.46
6032;BME280;3044;43.232;27.972;2023-02-18T08:33:58;45083.34;;;-143.84;35.33
6032;BME280;3044;43.232;27.972;2023-02-18T08:36:26;45079.53;;;-143.84;35.61
6032;BME280;3044;43.232;27.972;2023-02-18T08:38:54;45094.78;;;-143.84;35.35
6032;BME280;3044;43.232;27.972;2023-02-18T08:41:21;45083.34;;;-143.84;35.22
6032;BME280;3044;43.232;27.972;2023-02-18T08:43:48;45089.06;;;-143.84;35.76
6032;BME280;3044;43.232;27.972;2023-02-18T08:46:17;45092.88;;;-143.84;35.66
6032;BME280;3044;43.232;27.972;2023-02-18T08:48:44;45089.06;;;-143.84;35.61
6032;BME280;3044;43.232;27.972;2023-02-18T08:51:16;45089.06;;;-143.84;35.28
6032;BME280;3044;43.232;27.972;2023-02-18T08:53:43;45090.97;;;-143.84;35.50
6032;BME280;3044;43.232;27.972;2023-02-18T08:56:11;45077.63;;;-143.84;35.25
6032;BME280;3044;43.232;27.972;2023-02-18T08:58:39;45071.91;;;-143.84;35.17
6032;BME280;3044;43.232;27.972;2023-02-18T09:01:09;45068.13;;;-143.84;35.16
6032;BME280;3044;43.232;27.972;2023-02-18T09:03:38;45083.34;;;-143.84;35.05
6032;BME280;3044;43.232;27.972;2023-02-18T09:06:06;45081.44;;;-143.84;35.02
6032;BME280;3044;43.232;27.972;2023-02-18T09:08:33;45090.97;;;-143.84;35.21
6032;BME280;3044;43.232;27.972;2023-02-18T09:11:02;45075.72;;;-143.84;34.68
6032;BME280;3044;43.232;27.972;2023-02-18T09:13:30;45068.13;;;-143.84;34.54
6032;BME280;3044;43.232;27.972;2023-02-18T09:15:59;45071.91;;;-143.84;34.58
6032;BME280;3044;43.232;27.972;2023-02-18T09:18:26;45079.53;;;-143.84;34.14
6032;BME280;3044;43.232;27.972;2023-02-18T09:20:57;45071.91;;;-143.84;34.32
6032;BME280;3044;43.232;27.972;2023-02-18T09:23:25;45102.38;;;-143.84;34.57
6032;BME280;3044;43.232;27.972;2023-02-18T09:25:52;45077.63;;;-143.84;34.24
6032;BME280;3044;43.232;27.972;2023-02-18T09:28:20;45066.22;;;-143.84;34.47
6032;BME280;3044;43.232;27.972;2023-02-18T09:30:47;45056.69;;;-143.84;34.13
6032;BME280;3044;43.232;27.972;2023-02-18T09:33:14;45081.44;;;-143.84;34.00
6032;BME280;3044;43.232;27.972;2023-02-18T09:35:43;45100.47;;;-143.84;34.59
6032;BME280;3044;43.232;27.972;2023-02-18T09:38:13;45089.06;;;-143.84;34.18
6032;BME280;3044;43.232;27.972;2023-02-18T09:40:43;45081.44;;;-143.84;33.69
6032;BME280;3044;43.232;27.972;2023-02-18T09:43:18;45077.63;;;-143.84;33.71
6032;BME280;3044;43.232;27.972;2023-02-18T09:45:50;45052.88;;;-143.84;33.47
6032;BME280;3044;43.232;27.972;2023-02-18T09:48:17;45073.81;;;-143.84;33.68
6032;BME280;3044;43.232;27.972;2023-02-18T09:50:47;45085.25;;;-143.84;33.65
6032;BME280;3044;43.232;27.972;2023-02-18T09:53:20;45047.16;;;-143.84;33.77
6032;BME280;3044;43.232;27.972;2023-02-18T09:55:49;45070.00;;;-143.84;33.72
6032;BME280;3044;43.232;27.972;2023-02-18T09:58:19;45070.00;;;-143.84;33.88
6032;BME280;3044;43.232;27.972;2023-02-18T10:00:49;45060.50;;;-143.84;33.84
6032;BME280;3044;43.232;27.972;2023-02-18T10:03:19;45045.25;;;-143.84;33.74
6032;BME280;3044;43.232;27.972;2023-02-18T10:05:54;45075.72;;;-143.84;33.54
6032;BME280;3044;43.232;27.972;2023-02-18T10:08:26;45054.78;;;-143.84;33.60
6032;BME280;3044;43.232;27.972;2023-02-18T10:10:54;45037.66;;;-143.84;33.83
6032;BME280;3044;43.232;27.972;2023-02-18T10:13:23;45100.47;;;-143.84;33.55
6032;BME280;3044;43.232;27.972;2023-02-18T10:15:51;45049.06;;;-143.84;34.00
6032;BME280;3044;43.232;27.972;2023-02-18T10:18:26;45049.06;;;-143.84;33.79
6032;BME280;3044;43.232;27.972;2023-02-18T10:21:00;45054.78;;;-143.84;33.64
6032;BME280;3044;43.232;27.972;2023-02-18T10:23:33;45081.44;;;-143.84;33.97
6032;BME280;3044;43.232;27.972;2023-02-18T10:26:02;45071.91;;;-143.84;33.99
6032;BME280;3044;43.232;27.972;2023-02-18T10:28:31;45060.50;;;-143.84;34.34
6032;BME280;3044;43.232;27.972;2023-02-18T10:31:04;45108.09;;;-143.84;34.18
6032;BME280;3044;43.232;27.972;2023-02-18T10:33:35;45087.16;;;-143.84;34.18
6032;BME280;3044;43.232;27.972;2023-02-18T10:36:23;45070.00;;;-143.84;34.09
6032;BME280;3044;43.232;27.972;2023-02-18T10:42:04;45073.81;;;-143.84;34.02
6032;BME280;3044;43.232;27.972;2023-02-18T10:44:45;45068.13;;;-143.84;34.15
6032;BME280;3044;43.232;27.972;2023-02-18T10:47:24;45062.41;;;-143.84;34.18
6032;BME280;3044;43.232;27.972;2023-02-18T10:50:01;45054.78;;;-143.84;34.30
6032;BME280;3044;43.232;27.972;2023-02-18T10:52:33;45087.16;;;-143.84;34.43
6032;BME280;3044;43.232;27.972;2023-02-18T10:55:05;45052.88;;;-143.84;34.43
6032;BME280;3044;43.232;27.972;2023-02-18T10:57:35;45064.31;;;-143.84;34.68
6032;BME280;3044;43.232;27.972;2023-02-18T11:00:16;45090.97;;;-143.84;34.96
6032;BME280;3044;43.232;27.972;2023-02-18T11:02:45;45077.63;;;-143.84;34.99
6032;BME280;3044;43.232;27.972;2023-02-18T11:05:19;45073.81;;;-143.84;34.99
6032;BME280;3044;43.232;27.972;2023-02-18T11:07:50;45081.44;;;-143.84;35.28
6032;BME280;3044;43.232;27.972;2023-02-18T11:10:23;45083.34;;;-143.84;35.22
6032;BME280;3044;43.232;27.972;2023-02-18T11:12:55;45071.91;;;-143.84;35.69
6032;BME280;3044;43.232;27.972;2023-02-18T11:15:24;45052.88;;;-143.84;35.65
6032;BME280;3044;43.232;27.972;2023-02-18T11:17:54;45056.69;;;-143.84;35.76
6032;BME280;3044;43.232;27.972;2023-02-18T11:20:27;45056.69;;;-143.84;35.39
6032;BME280;3044;43.232;27.972;2023-02-18T11:23:14;45052.88;;;-143.84;35.58
6032;BME280;3044;43.232;27.972;2023-02-18T11:25:53;45054.78;;;-143.84;35.83
6032;BME280;3044;43.232;27.972;2023-02-18T11:28:29;45039.53;;;-143.84;35.89
6032;BME280;3044;43.232;27.972;2023-02-18T11:30:59;45066.22;;;-143.84;35.87
6032;BME280;3044;43.232;27.972;2023-02-18T11:33:32;45066.22;;;-143.84;36.74
6032;BME280;3044;43.232;27.972;2023-02-18T11:36:04;45079.53;;;-143.84;36.41
6032;BME280;3044;43.232;27.972;2023-02-18T11:38:43;45064.31;;;-143.84;36.24
6032;BME280;3044;43.232;27.972;2023-02-18T11:41:15;45085.25;;;-143.84;35.91
6032;BME280;3044;43.232;27.972;2023-02-18T11:43:46;45060.50;;;-143.84;36.42
6032;BME280;3044;43.232;27.972;2023-02-18T11:46:15;45068.13;;;-143.84;36.20
6032;BME280;3044;43.232;27.972;2023-02-18T11:48:43;45030.03;;;-143.84;35.98
6032;BME280;3044;43.232;27.972;2023-02-18T11:51:16;45043.34;;;-143.84;35.63
6032;BME280;3044;43.232;27.972;2023-02-18T11:53:56;45020.50;;;-143.84;35.47
6032;BME280;3044;43.232;27.972;2023-02-18T11:56:27;45050.97;;;-143.84;35.80
6032;BME280;3044;43.232;27.972;2023-02-18T11:58:56;45054.78;;;-143.84;35.03
6032;BME280;3044;43.232;27.972;2023-02-18T12:01:40;45031.94;;;-143.84;35.11
6032;BME280;3044;43.232;27.972;2023-02-18T12:04:13;45054.78;;;-143.84;35.40
6032;BME280;3044;43.232;27.972;2023-02-18T12:06:47;45047.16;;;-143.84;35.30
6032;BME280;3044;43.232;27.972;2023-02-18T12:09:24;45047.16;;;-143.84;35.19
6032;BME280;3044;43.232;27.972;2023-02-18T12:11:55;45037.66;;;-143.84;35.33
6032;BME280;3044;43.232;27.972;2023-02-18T12:14:24;45050.97;;;-143.84;35.47
6032;BME280;3044;43.232;27.972;2023-02-18T12:17:10;45049.06;;;-143.84;35.56
6032;BME280;3044;43.232;27.972;2023-02-18T12:19:50;45037.66;;;-143.84;35.68
6032;BME280;3044;43.232;27.972;2023-02-18T12:22:26;45031.94;;;-143.84;35.65
6032;BME280;3044;43.232;27.972;2023-02-18T12:25:07;45068.13;;;-143.84;35.93
6032;BME280;3044;43.232;27.972;2023-02-18T12:27:43;45049.06;;;-143.84;35.85
6032;BME280;3044;43.232;27.972;2023-02-18T12:30:31;45030.03;;;-143.84;36.26
6032;BME280;3044;43.232;27.972;2023-02-18T12:33:07;45052.88;;;-143.84;36.05
6032;BME280;3044;43.232;27.972;2023-02-18T12:35:51;45045.25;;;-143.84;36.00
6032;BME280;3044;43.232;27.972;2023-02-18T12:38:50;45068.13;;;-143.84;36.09
6032;BME280;3044;43.232;27.972;2023-02-18T12:41:35;45043.34;;;-143.84;36.21
6032;BME280;3044;43.232;27.972;2023-02-18T12:44:21;45070.00;;;-143.84;36.57
6032;BME280;3044;43.232;27.972;2023-02-18T12:47:05;45052.88;;;-143.84;36.72
6032;BME280;3044;43.232;27.972;2023-02-18T12:49:58;45066.22;;;-143.84;36.62
6032;BME280;3044;43.232;27.972;2023-02-18T12:52:38;45026.22;;;-143.84;36.64
6032;BME280;3044;43.232;27.972;2023-02-18T12:55:20;45039.53;;;-143.84;36.49
6032;BME280;3044;43.232;27.972;2023-02-18T12:57:57;45039.53;;;-143.84;36.81
6032;BME280;3044;43.232;27.972;2023-02-18T13:00:44;45052.88;;;-143.84;36.74
6032;BME280;3044;43.232;27.972;2023-02-18T13:03:48;45052.88;;;-143.84;36.67
6032;BME280;3044;43.232;27.972;2023-02-18T13:06:27;45049.06;;;-143.84;37.07
6032;BME280;3044;43.232;27.972;2023-02-18T13:09:02;45066.22;;;-143.84;37.13
6032;BME280;3044;43.232;27.972;2023-02-18T13:11:38;45035.75;;;-143.84;37.23
6032;BME280;3044;43.232;27.972;2023-02-18T13:14:12;45049.06;;;-143.84;37.19
6032;BME280;3044;43.232;27.972;2023-02-18T13:16:43;45054.78;;;-143.84;37.47
6032;BME280;3044;43.232;27.972;2023-02-18T13:19:17;45041.44;;;-143.84;37.36